sensor_id;sensor_type;location;lat;lon;timestamp;temperature;humidity
909;DHT22;441;51.192;6.788;2023-04-06T00:00:24;21.20;44.60
909;DHT22;441;51.192;6.788;2023-04-06T00:02:51;21.20;44.60
909;DHT22;441;51.192;6.788;2023-04-06T00:05:19;21.20;44.60
909;DHT22;441;51.192;6.788;2023-04-06T00:07:46;21.20;44.60
909;DHT22;441;51.192;6.788;2023-04-06T00:10:13;21.20;44.60
909;DHT22;441;51.192;6.788;2023-04-06T00:12:40;21.20;44.60
909;DHT22;441;51.192;6.788;2023-04-06T00:15:08;21.10;44.50
909;DHT22;441;51.192;6.788;2023-04-06T00:17:36;21.20;44.60
909;DHT22;441;51.192;6.788;2023-04-06T00:20:04;21.10;44.60
909;DHT22;441;51.192;6.788;2023-04-06T00:22:32;21.10;44.60
909;DHT22;441;51.192;6.788;2023-04-06T00:24:59;21.10;44.60
909;DHT22;441;51.192;6.788;2023-04-06T00:27:26;21.10;44.60
909;DHT22;441;51.192;6.788;2023-04-06T00:29:53;21.10;44.60
909;DHT22;441;51.192;6.788;2023-04-06T00:32:20;21.10;44.60
909;DHT22;441;51.192;6.788;2023-04-06T00:34:48;21.10;44.60
909;DHT22;441;51.192;6.788;2023-04-06T00:37:15;21.10;44.60
909;DHT22;441;51.192;6.788;2023-04-06T00:39:42;21.00;44.60
909;DHT22;441;51.192;6.788;2023-04-06T00:42:11;21.00;44.60
909;DHT22;441;51.192;6.788;2023-04-06T00:44:39;21.00;44.50
909;DHT22;441;51.192;6.788;2023-04-06T00:47:07;21.00;44.60
909;DHT22;441;51.192;6.788;2023-04-06T00:49:34;21.00;44.50
909;DHT22;441;51.192;6.788;2023-04-06T00:52:02;21.00;44.60
909;DHT22;441;51.192;6.788;2023-04-06T00:54:30;21.00;44.60
909;DHT22;441;51.192;6.788;2023-04-06T00:56:57;21.00;44.60
909;DHT22;441;51.192;6.788;2023-04-06T00:59:24;21.00;44.60
909;DHT22;441;51.192;6.788;2023-04-06T01:01:51;21.00;44.60
909;DHT22;441;51.192;6.788;2023-04-06T01:04:18;21.00;44.60
909;DHT22;441;51.192;6.788;2023-04-06T01:06:45;21.00;44.60
909;DHT22;441;51.192;6.788;2023-04-06T01:09:14;21.00;45.10
909;DHT22;441;51.192;6.788;2023-04-06T01:11:41;21.00;44.60
909;DHT22;441;51.192;6.788;2023-04-06T01:14:08;21.00;44.60
909;DHT22;441;51.192;6.788;2023-04-06T01:16:35;21.00;44.60
909;DHT22;441;51.192;6.788;2023-04-06T01:19:07;21.00;44.60
909;DHT22;441;51.192;6.788;2023-04-06T01:21:35;20.90;44.50
909;DHT22;441;51.192;6.788;2023-04-06T01:24:04;21.00;44.60
909;DHT22;441;51.192;6.788;2023-04-06T01:26:32;20.90;44.50
909;DHT22;441;51.192;6.788;2023-04-06T01:28:59;20.90;44.50
909;DHT22;441;51.192;6.788;2023-04-06T01:31:27;20.90;44.50
909;DHT22;441;51.192;6.788;2023-04-06T01:33:54;20.90;44.50
909;DHT22;441;51.192;6.788;2023-04-06T01:36:21;20.90;44.60
909;DHT22;441;51.192;6.788;2023-04-06T01:38:48;20.90;44.60
909;DHT22;441;51.192;6.788;2023-04-06T01:41:17;20.90;44.50
909;DHT22;441;51.192;6.788;2023-04-06T01:43:44;20.90;44.60
909;DHT22;441;51.192;6.788;2023-04-06T01:46:11;20.90;44.60
909;DHT22;441;51.192;6.788;2023-04-06T01:48:38;20.90;44.60
909;DHT22;441;51.192;6.788;2023-04-06T01:51:05;20.80;44.50
909;DHT22;441;51.192;6.788;2023-04-06T01:53:32;20.80;44.50
909;DHT22;441;51.192;6.788;2023-04-06T01:55:59;20.80;44.50
909;DHT22;441;51.192;6.788;2023-04-06T01:58:27;20.90;44.60
909;DHT22;441;51.192;6.788;2023-04-06T02:00:54;20.80;44.50
909;DHT22;441;51.192;6.788;2023-04-06T02:03:21;20.80;44.50
909;DHT22;441;51.192;6.788;2023-04-06T02:05:48;20.80;44.50
909;DHT22;441;51.192;6.788;2023-04-06T02:08:15;20.80;44.60
909;DHT22;441;51.192;6.788;2023-04-06T02:10:42;20.80;44.50
909;DHT22;441;51.192;6.788;2023-04-06T02:13:09;20.80;44.50
909;DHT22;441;51.192;6.788;2023-04-06T02:15:37;20.80;44.50
909;DHT22;441;51.192;6.788;2023-04-06T02:18:05;20.80;44.50
909;DHT22;441;51.192;6.788;2023-04-06T02:20:32;20.80;44.50
909;DHT22;441;51.192;6.788;2023-04-06T02:22:59;20.80;45.10
909;DHT22;441;51.192;6.788;2023-04-06T02:25:26;20.80;44.50
909;DHT22;441;51.192;6.788;2023-04-06T02:27:53;20.80;44.50
909;DHT22;441;51.192;6.788;2023-04-06T02:30:20;20.80;44.50
909;DHT22;441;51.192;6.788;2023-04-06T02:32:49;20.80;44.50
909;DHT22;441;51.192;6.788;2023-04-06T02:35:16;20.80;45.00
909;DHT22;441;51.192;6.788;2023-04-06T02:37:43;20.80;44.50
909;DHT22;441;51.192;6.788;2023-04-06T02:40:10;20.80;44.50
909;DHT22;441;51.192;6.788;2023-04-06T02:42:37;20.80;44.50
909;DHT22;441;51.192;6.788;2023-04-06T02:45:05;20.80;44.50
909;DHT22;441;51.192;6.788;2023-04-06T02:47:33;20.80;44.50
909;DHT22;441;51.192;6.788;2023-04-06T02:50:01;20.80;44.50
909;DHT22;441;51.192;6.788;2023-04-06T02:52:28;20.80;44.50
909;DHT22;441;51.192;6.788;2023-04-06T02:54:55;20.80;44.50
909;DHT22;441;51.192;6.788;2023-04-06T02:57:22;20.80;44.50
909;DHT22;441;51.192;6.788;2023-04-06T02:59:49;20.80;44.50
909;DHT22;441;51.192;6.788;2023-04-06T03:02:16;20.80;44.50
909;DHT22;441;51.192;6.788;2023-04-06T03:04:44;20.70;44.40
909;DHT22;441;51.192;6.788;2023-04-06T03:07:12;20.70;44.50
909;DHT22;441;51.192;6.788;2023-04-06T03:09:39;20.70;44.50
909;DHT22;441;51.192;6.788;2023-04-06T03:12:06;20.70;44.60
909;DHT22;441;51.192;6.788;2023-04-06T03:14:33;20.70;44.60
909;DHT22;441;51.192;6.788;2023-04-06T03:17:00;20.70;44.60
909;DHT22;441;51.192;6.788;2023-04-06T03:19:27;20.70;44.60
909;DHT22;441;51.192;6.788;2023-04-06T03:21:54;20.80;44.60
909;DHT22;441;51.192;6.788;2023-04-06T03:24:23;20.70;44.50
909;DHT22;441;51.192;6.788;2023-04-06T03:26:50;20.70;44.50
909;DHT22;441;51.192;6.788;2023-04-06T03:29:17;20.70;44.60
909;DHT22;441;51.192;6.788;2023-04-06T03:31:44;20.70;44.60
909;DHT22;441;51.192;6.788;2023-04-06T03:34:11;20.70;44.60
909;DHT22;441;51.192;6.788;2023-04-06T03:36:38;20.70;44.60
909;DHT22;441;51.192;6.788;2023-04-06T03:39:05;20.70;44.60
909;DHT22;441;51.192;6.788;2023-04-06T03:41:33;20.70;44.50
909;DHT22;441;51.192;6.788;2023-04-06T03:44:00;20.70;44.50
909;DHT22;441;51.192;6.788;2023-04-06T03:46:27;20.70;44.50
909;DHT22;441;51.192;6.788;2023-04-06T03:48:54;20.70;44.60
909;DHT22;441;51.192;6.788;2023-04-06T03:51:21;20.70;44.60
909;DHT22;441;51.192;6.788;2023-04-06T03:53:48;20.70;44.60
909;DHT22;441;51.192;6.788;2023-04-06T03:56:15;20.70;44.60
909;DHT22;441;51.192;6.788;2023-04-06T03:58:44;20.70;44.60
909;DHT22;441;51.192;6.788;2023-04-06T04:01:14;20.70;44.60
909;DHT22;441;51.192;6.788;2023-04-06T04:03:41;20.70;44.60
909;DHT22;441;51.192;6.788;2023-04-06T04:06:08;20.70;44.60
909;DHT22;441;51.192;6.788;2023-04-06T04:08:35;20.70;44.60
909;DHT22;441;51.192;6.788;2023-04-06T04:11:02;20.70;44.60
909;DHT22;441;51.192;6.788;2023-04-06T04:13:29;20.70;44.60
909;DHT22;441;51.192;6.788;2023-04-06T04:15:58;20.70;44.60
909;DHT22;441;51.192;6.788;2023-04-06T04:18:25;20.70;44.60
909;DHT22;441;51.192;6.788;2023-04-06T04:20:52;20.70;44.60
909;DHT22;441;51.192;6.788;2023-04-06T04:23:19;20.70;44.60
909;DHT22;441;51.192;6.788;2023-04-06T04:25:46;20.60;44.50
909;DHT22;441;51.192;6.788;2023-04-06T04:28:13;20.60;44.60
909;DHT22;441;51.192;6.788;2023-04-06T04:30:40;20.60;44.60
909;DHT22;441;51.192;6.788;2023-04-06T04:33:08;20.60;44.60
909;DHT22;441;51.192;6.788;2023-04-06T04:35:35;20.60;44.50
909;DHT22;441;51.192;6.788;2023-04-06T04:38:02;20.60;44.60
909;DHT22;441;51.192;6.788;2023-04-06T04:40:29;20.60;44.70
909;DHT22;441;51.192;6.788;2023-04-06T04:42:56;20.70;44.70
909;DHT22;441;51.192;6.788;2023-04-06T04:45:23;20.70;44.80
909;DHT22;441;51.192;6.788;2023-04-06T04:47:50;20.70;44.90
909;DHT22;441;51.192;6.788;2023-04-06T04:50:19;20.70;45.10
909;DHT22;441;51.192;6.788;2023-04-06T04:52:46;20.70;45.40
909;DHT22;441;51.192;6.788;2023-04-06T04:55:13;20.70;45.60
909;DHT22;441;51.192;6.788;2023-04-06T04:57:40;20.70;46.10
909;DHT22;441;51.192;6.788;2023-04-06T05:00:08;20.80;47.60
909;DHT22;441;51.192;6.788;2023-04-06T05:02:35;20.80;48.50
909;DHT22;441;51.192;6.788;2023-04-06T05:05:02;20.80;48.60
909;DHT22;441;51.192;6.788;2023-04-06T05:07:30;20.90;48.40
909;DHT22;441;51.192;6.788;2023-04-06T05:09:57;20.90;48.20
909;DHT22;441;51.192;6.788;2023-04-06T05:12:24;20.90;47.90
909;DHT22;441;51.192;6.788;2023-04-06T05:14:53;20.90;47.60
909;DHT22;441;51.192;6.788;2023-04-06T05:17:20;20.90;47.40
909;DHT22;441;51.192;6.788;2023-04-06T05:19:47;21.00;47.30
909;DHT22;441;51.192;6.788;2023-04-06T05:22:14;21.00;47.10
909;DHT22;441;51.192;6.788;2023-04-06T05:24:45;21.00;47.20
909;DHT22;441;51.192;6.788;2023-04-06T05:27:12;21.00;46.80
909;DHT22;441;51.192;6.788;2023-04-06T05:29:39;21.00;46.70
909;DHT22;441;51.192;6.788;2023-04-06T05:34:37;21.00;46.50
909;DHT22;441;51.192;6.788;2023-04-06T05:37:04;21.00;46.40
909;DHT22;441;51.192;6.788;2023-04-06T05:39:31;21.00;46.30
909;DHT22;441;51.192;6.788;2023-04-06T05:42:03;21.00;46.20
909;DHT22;441;51.192;6.788;2023-04-06T05:44:30;21.00;46.10
909;DHT22;441;51.192;6.788;2023-04-06T05:46:57;21.00;46.60
909;DHT22;441;51.192;6.788;2023-04-06T05:49:24;21.00;46.00
909;DHT22;441;51.192;6.788;2023-04-06T05:51:51;21.00;45.90
909;DHT22;441;51.192;6.788;2023-04-06T05:54:18;21.00;45.90
909;DHT22;441;51.192;6.788;2023-04-06T05:56:46;21.00;45.80
909;DHT22;441;51.192;6.788;2023-04-06T05:59:15;21.00;45.70
909;DHT22;441;51.192;6.788;2023-04-06T06:01:42;21.00;45.70
909;DHT22;441;51.192;6.788;2023-04-06T06:04:09;21.00;45.60
909;DHT22;441;51.192;6.788;2023-04-06T06:06:36;21.00;45.60
909;DHT22;441;51.192;6.788;2023-04-06T06:09:03;20.90;45.40
909;DHT22;441;51.192;6.788;2023-04-06T06:11:30;21.00;45.40
909;DHT22;441;51.192;6.788;2023-04-06T06:13:58;20.90;45.30
909;DHT22;441;51.192;6.788;2023-04-06T06:16:27;20.90;45.20
909;DHT22;441;51.192;6.788;2023-04-06T06:18:54;20.90;45.20
909;DHT22;441;51.192;6.788;2023-04-06T06:21:21;20.90;45.70
909;DHT22;441;51.192;6.788;2023-04-06T06:23:48;20.90;45.20
909;DHT22;441;51.192;6.788;2023-04-06T06:26:16;20.90;45.10
909;DHT22;441;51.192;6.788;2023-04-06T06:28:43;20.80;45.00
909;DHT22;441;51.192;6.788;2023-04-06T06:31:10;20.80;45.00
909;DHT22;441;51.192;6.788;2023-04-06T06:33:38;20.80;44.90
909;DHT22;441;51.192;6.788;2023-04-06T06:36:05;20.80;44.90
909;DHT22;441;51.192;6.788;2023-04-06T06:38:32;20.80;44.90
909;DHT22;441;51.192;6.788;2023-04-06T06:41:00;20.80;44.90
909;DHT22;441;51.192;6.788;2023-04-06T06:43:27;20.80;44.90
909;DHT22;441;51.192;6.788;2023-04-06T06:45:54;20.80;44.90
909;DHT22;441;51.192;6.788;2023-04-06T06:48:20;20.80;44.90
909;DHT22;441;51.192;6.788;2023-04-06T06:50:49;20.70;44.80
909;DHT22;441;51.192;6.788;2023-04-06T06:53:16;20.70;44.80
909;DHT22;441;51.192;6.788;2023-04-06T06:55:43;20.70;44.80
909;DHT22;441;51.192;6.788;2023-04-06T06:58:10;20.70;44.80
909;DHT22;441;51.192;6.788;2023-04-06T07:00:38;20.70;44.80
909;DHT22;441;51.192;6.788;2023-04-06T07:03:05;20.70;44.80
909;DHT22;441;51.192;6.788;2023-04-06T07:05:32;20.60;44.70
909;DHT22;441;51.192;6.788;2023-04-06T07:08:00;20.60;44.70
909;DHT22;441;51.192;6.788;2023-04-06T07:10:27;20.60;44.70
909;DHT22;441;51.192;6.788;2023-04-06T07:12:54;20.60;44.70
909;DHT22;441;51.192;6.788;2023-04-06T07:15:21;20.60;44.70
909;DHT22;441;51.192;6.788;2023-04-06T07:17:48;20.60;44.70
909;DHT22;441;51.192;6.788;2023-04-06T07:20:15;20.60;44.70
909;DHT22;441;51.192;6.788;2023-04-06T07:22:43;20.60;44.70
909;DHT22;441;51.192;6.788;2023-04-06T07:25:12;20.50;44.60
909;DHT22;441;51.192;6.788;2023-04-06T07:27:39;20.50;44.70
909;DHT22;441;51.192;6.788;2023-04-06T07:30:07;20.50;44.70
909;DHT22;441;51.192;6.788;2023-04-06T07:32:34;20.50;44.70
909;DHT22;441;51.192;6.788;2023-04-06T07:35:01;20.50;44.70
909;DHT22;441;51.192;6.788;2023-04-06T07:37:28;20.50;44.70
909;DHT22;441;51.192;6.788;2023-04-06T07:39:55;20.50;44.60
909;DHT22;441;51.192;6.788;2023-04-06T07:42:24;20.50;44.70
909;DHT22;441;51.192;6.788;2023-04-06T07:44:51;20.50;44.70
909;DHT22;441;51.192;6.788;2023-04-06T07:47:18;20.50;44.70
909;DHT22;441;51.192;6.788;2023-04-06T07:49:44;20.50;44.70
909;DHT22;441;51.192;6.788;2023-04-06T07:52:12;20.40;44.70
909;DHT22;441;51.192;6.788;2023-04-06T07:54:40;20.50;44.80
909;DHT22;441;51.192;6.788;2023-04-06T07:57:07;20.40;44.70
909;DHT22;441;51.192;6.788;2023-04-06T07:59:35;20.50;44.80
909;DHT22;441;51.192;6.788;2023-04-06T08:02:02;20.40;44.70
909;DHT22;441;51.192;6.788;2023-04-06T08:04:29;20.40;44.70
909;DHT22;441;51.192;6.788;2023-04-06T08:06:56;20.40;44.70
909;DHT22;441;51.192;6.788;2023-04-06T08:09:23;20.40;44.70
909;DHT22;441;51.192;6.788;2023-04-06T08:11:50;20.40;44.70
909;DHT22;441;51.192;6.788;2023-04-06T08:14:17;20.40;44.70
909;DHT22;441;51.192;6.788;2023-04-06T08:16:45;20.30;44.70
909;DHT22;441;51.192;6.788;2023-04-06T08:19:12;20.30;44.70
909;DHT22;441;51.192;6.788;2023-04-06T08:21:42;20.30;44.70
909;DHT22;441;51.192;6.788;2023-04-06T08:24:09;20.30;44.70
909;DHT22;441;51.192;6.788;2023-04-06T08:26:36;20.30;44.70
909;DHT22;441;51.192;6.788;2023-04-06T08:29:03;20.30;44.70
909;DHT22;441;51.192;6.788;2023-04-06T08:31:33;20.30;44.70
909;DHT22;441;51.192;6.788;2023-04-06T08:34:01;20.30;44.70
909;DHT22;441;51.192;6.788;2023-04-06T08:36:28;20.20;44.60
909;DHT22;441;51.192;6.788;2023-04-06T08:38:56;20.20;44.60
909;DHT22;441;51.192;6.788;2023-04-06T08:41:23;20.30;44.70
909;DHT22;441;51.192;6.788;2023-04-06T08:43:56;20.30;44.70
909;DHT22;441;51.192;6.788;2023-04-06T08:46:23;20.30;44.70
909;DHT22;441;51.192;6.788;2023-04-06T08:48:55;20.30;44.70
909;DHT22;441;51.192;6.788;2023-04-06T08:51:24;20.20;44.60
909;DHT22;441;51.192;6.788;2023-04-06T08:53:52;20.20;44.50
909;DHT22;441;51.192;6.788;2023-04-06T08:56:21;20.20;44.60
909;DHT22;441;51.192;6.788;2023-04-06T08:58:49;20.20;44.60
909;DHT22;441;51.192;6.788;2023-04-06T09:01:20;20.20;44.60
909;DHT22;441;51.192;6.788;2023-04-06T09:03:49;20.20;44.60
909;DHT22;441;51.192;6.788;2023-04-06T09:06:17;20.10;44.50
909;DHT22;441;51.192;6.788;2023-04-06T09:08:45;20.10;44.50
909;DHT22;441;51.192;6.788;2023-04-06T09:11:13;20.10;44.50
909;DHT22;441;51.192;6.788;2023-04-06T09:13:47;20.10;44.50
909;DHT22;441;51.192;6.788;2023-04-06T09:16:14;20.10;44.40
909;DHT22;441;51.192;6.788;2023-04-06T09:18:42;20.10;44.40
909;DHT22;441;51.192;6.788;2023-04-06T09:21:09;20.10;44.50
909;DHT22;441;51.192;6.788;2023-04-06T09:23:36;20.10;44.50
909;DHT22;441;51.192;6.788;2023-04-06T09:26:08;20.00;44.40
909;DHT22;441;51.192;6.788;2023-04-06T09:28:43;20.10;44.40
909;DHT22;441;51.192;6.788;2023-04-06T09:31:10;20.10;44.40
909;DHT22;441;51.192;6.788;2023-04-06T09:33:38;20.00;44.40
909;DHT22;441;51.192;6.788;2023-04-06T09:36:06;20.00;44.40
909;DHT22;441;51.192;6.788;2023-04-06T09:38:36;20.00;44.90
909;DHT22;441;51.192;6.788;2023-04-06T09:41:03;20.00;44.40
909;DHT22;441;51.192;6.788;2023-04-06T09:43:32;20.00;45.00
909;DHT22;441;51.192;6.788;2023-04-06T09:46:00;20.00;44.50
909;DHT22;441;51.192;6.788;2023-04-06T09:48:31;20.00;44.40
909;DHT22;441;51.192;6.788;2023-04-06T09:51:03;20.00;44.40
909;DHT22;441;51.192;6.788;2023-04-06T09:53:31;20.00;44.40
909;DHT22;441;51.192;6.788;2023-04-06T09:56:02;20.00;44.40
909;DHT22;441;51.192;6.788;2023-04-06T09:58:34;20.00;44.40
909;DHT22;441;51.192;6.788;2023-04-06T10:01:07;20.00;44.40
909;DHT22;441;51.192;6.788;2023-04-06T10:03:41;19.90;44.30
909;DHT22;441;51.192;6.788;2023-04-06T10:06:11;19.90;44.90
909;DHT22;441;51.192;6.788;2023-04-06T10:08:40;19.90;44.30
909;DHT22;441;51.192;6.788;2023-04-06T10:11:09;19.90;44.30
909;DHT22;441;51.192;6.788;2023-04-06T10:13:38;19.90;44.30
909;DHT22;441;51.192;6.788;2023-04-06T10:16:06;19.90;44.30
909;DHT22;441;51.192;6.788;2023-04-06T10:18:34;19.90;44.80
909;DHT22;441;51.192;6.788;2023-04-06T10:21:04;19.90;44.30
909;DHT22;441;51.192;6.788;2023-04-06T10:23:35;19.90;44.30
909;DHT22;441;51.192;6.788;2023-04-06T10:26:03;19.90;44.30
909;DHT22;441;51.192;6.788;2023-04-06T10:28:31;19.90;44.30
909;DHT22;441;51.192;6.788;2023-04-06T10:31:01;19.90;44.90
909;DHT22;441;51.192;6.788;2023-04-06T10:33:28;19.90;44.30
909;DHT22;441;51.192;6.788;2023-04-06T10:35:55;19.90;44.30
909;DHT22;441;51.192;6.788;2023-04-06T10:38:33;19.90;44.30
909;DHT22;441;51.192;6.788;2023-04-06T10:41:04;19.90;44.40
909;DHT22;441;51.192;6.788;2023-04-06T10:43:33;19.90;44.40
909;DHT22;441;51.192;6.788;2023-04-06T10:46:03;19.90;44.40
909;DHT22;441;51.192;6.788;2023-04-06T10:48:37;19.90;44.40
909;DHT22;441;51.192;6.788;2023-04-06T10:51:08;19.90;44.40
909;DHT22;441;51.192;6.788;2023-04-06T10:53:36;19.90;44.40
909;DHT22;441;51.192;6.788;2023-04-06T10:56:04;19.80;44.30
909;DHT22;441;51.192;6.788;2023-04-06T10:58:31;19.80;44.30
909;DHT22;441;51.192;6.788;2023-04-06T11:00:58;19.90;44.40
909;DHT22;441;51.192;6.788;2023-04-06T11:03:27;19.90;44.40
909;DHT22;441;51.192;6.788;2023-04-06T11:05:55;19.90;44.40
909;DHT22;441;51.192;6.788;2023-04-06T11:08:23;19.90;44.40
909;DHT22;441;51.192;6.788;2023-04-06T11:10:50;19.80;44.30
909;DHT22;441;51.192;6.788;2023-04-06T11:13:17;19.90;44.40
909;DHT22;441;51.192;6.788;2023-04-06T11:15:44;19.80;44.30
909;DHT22;441;51.192;6.788;2023-04-06T11:18:11;19.80;44.30
909;DHT22;441;51.192;6.788;2023-04-06T11:20:40;19.90;44.40
909;DHT22;441;51.192;6.788;2023-04-06T11:23:22;19.90;44.30
909;DHT22;441;51.192;6.788;2023-04-06T11:25:51;19.90;44.30
909;DHT22;441;51.192;6.788;2023-04-06T11:28:18;19.80;44.20
909;DHT22;441;51.192;6.788;2023-04-06T11:30:45;19.80;44.20
909;DHT22;441;51.192;6.788;2023-04-06T11:33:20;19.80;44.20
909;DHT22;441;51.192;6.788;2023-04-06T11:35:49;19.80;44.20
909;DHT22;441;51.192;6.788;2023-04-06T11:38:18;19.80;44.20
909;DHT22;441;51.192;6.788;2023-04-06T11:40:45;19.80;44.10
909;DHT22;441;51.192;6.788;2023-04-06T11:43:12;19.80;44.10
909;DHT22;441;51.192;6.788;2023-04-06T11:45:42;19.80;44.10
909;DHT22;441;51.192;6.788;2023-04-06T11:48:18;19.80;44.20
909;DHT22;441;51.192;6.788;2023-04-06T11:50:46;19.80;44.20
909;DHT22;441;51.192;6.788;2023-04-06T11:53:15;19.80;44.10
909;DHT22;441;51.192;6.788;2023-04-06T11:55:42;19.80;44.20
909;DHT22;441;51.192;6.788;2023-04-06T11:58:12;19.80;44.10
909;DHT22;441;51.192;6.788;2023-04-06T12:00:39;19.80;44.10
909;DHT22;441;51.192;6.788;2023-04-06T12:03:10;19.80;44.10
909;DHT22;441;51.192;6.788;2023-04-06T12:05:37;19.80;44.10
909;DHT22;441;51.192;6.788;2023-04-06T12:08:04;19.80;44.10
909;DHT22;441;51.192;6.788;2023-04-06T12:10:33;19.80;44.10
909;DHT22;441;51.192;6.788;2023-04-06T12:13:00;19.80;44.10
909;DHT22;441;51.192;6.788;2023-04-06T12:15:27;19.80;44.10
909;DHT22;441;51.192;6.788;2023-04-06T12:17:54;19.80;44.10
909;DHT22;441;51.192;6.788;2023-04-06T12:20:20;19.80;44.10
909;DHT22;441;51.192;6.788;2023-04-06T12:22:47;19.80;44.10
909;DHT22;441;51.192;6.788;2023-04-06T12:25:15;19.80;44.10
909;DHT22;441;51.192;6.788;2023-04-06T12:27:43;19.80;44.10
909;DHT22;441;51.192;6.788;2023-04-06T12:30:11;19.80;44.10
909;DHT22;441;51.192;6.788;2023-04-06T12:32:38;19.80;44.10
909;DHT22;441;51.192;6.788;2023-04-06T12:35:06;19.80;44.10
909;DHT22;441;51.192;6.788;2023-04-06T12:37:34;19.80;44.10
909;DHT22;441;51.192;6.788;2023-04-06T12:40:02;19.80;44.20
909;DHT22;441;51.192;6.788;2023-04-06T12:42:29;19.80;44.10
909;DHT22;441;51.192;6.788;2023-04-06T12:44:58;19.80;44.10
909;DHT22;441;51.192;6.788;2023-04-06T12:47:25;19.80;44.20
909;DHT22;441;51.192;6.788;2023-04-06T12:49:53;19.80;44.10
909;DHT22;441;51.192;6.788;2023-04-06T12:52:20;19.80;44.20
909;DHT22;441;51.192;6.788;2023-04-06T12:54:47;19.80;44.10
909;DHT22;441;51.192;6.788;2023-04-06T12:57:15;19.80;44.10
909;DHT22;441;51.192;6.788;2023-04-06T12:59:43;19.80;44.10
909;DHT22;441;51.192;6.788;2023-04-06T13:02:11;19.70;44.00
909;DHT22;441;51.192;6.788;2023-04-06T13:04:38;19.70;44.00
909;DHT22;441;51.192;6.788;2023-04-06T13:07:05;19.80;44.10
909;DHT22;441;51.192;6.788;2023-04-06T13:09:32;19.70;44.00
909;DHT22;441;51.192;6.788;2023-04-06T13:12:00;19.80;44.10
909;DHT22;441;51.192;6.788;2023-04-06T13:14:27;19.80;44.10
909;DHT22;441;51.192;6.788;2023-04-06T13:16:54;19.80;44.10
909;DHT22;441;51.192;6.788;2023-04-06T13:19:23;19.80;44.10
909;DHT22;441;51.192;6.788;2023-04-06T13:21:51;19.80;44.10
909;DHT22;441;51.192;6.788;2023-04-06T13:24:18;19.70;44.00
909;DHT22;441;51.192;6.788;2023-04-06T13:26:45;19.70;44.00
909;DHT22;441;51.192;6.788;2023-04-06T13:29:12;19.80;44.00
909;DHT22;441;51.192;6.788;2023-04-06T13:31:39;19.70;44.00
909;DHT22;441;51.192;6.788;2023-04-06T13:34:06;19.70;44.00
909;DHT22;441;51.192;6.788;2023-04-06T13:36:34;19.80;44.10
909;DHT22;441;51.192;6.788;2023-04-06T13:39:01;19.80;44.00
909;DHT22;441;51.192;6.788;2023-04-06T13:41:28;19.70;44.00
909;DHT22;441;51.192;6.788;2023-04-06T13:43:55;19.70;44.10
909;DHT22;441;51.192;6.788;2023-04-06T13:46:23;19.70;44.80
909;DHT22;441;51.192;6.788;2023-04-06T13:48:50;19.70;45.70
909;DHT22;441;51.192;6.788;2023-04-06T13:51:17;19.70;46.00
909;DHT22;441;51.192;6.788;2023-04-06T13:53:46;19.80;46.30
909;DHT22;441;51.192;6.788;2023-04-06T13:56:12;19.80;46.40
909;DHT22;441;51.192;6.788;2023-04-06T13:58:40;19.80;46.30
909;DHT22;441;51.192;6.788;2023-04-06T14:01:07;19.80;46.40
909;DHT22;441;51.192;6.788;2023-04-06T14:03:35;19.90;46.50
909;DHT22;441;51.192;6.788;2023-04-06T14:06:09;19.90;46.40
909;DHT22;441;51.192;6.788;2023-04-06T14:08:37;19.90;46.40
909;DHT22;441;51.192;6.788;2023-04-06T14:11:06;19.90;46.50
909;DHT22;441;51.192;6.788;2023-04-06T14:13:33;20.00;46.50
909;DHT22;441;51.192;6.788;2023-04-06T14:16:00;20.00;46.40
909;DHT22;441;51.192;6.788;2023-04-06T14:18:27;20.00;46.50
909;DHT22;441;51.192;6.788;2023-04-06T14:20:57;20.00;46.60
909;DHT22;441;51.192;6.788;2023-04-06T14:23:24;20.00;46.60
909;DHT22;441;51.192;6.788;2023-04-06T14:26:00;20.00;46.50
909;DHT22;441;51.192;6.788;2023-04-06T14:28:29;20.00;46.60
909;DHT22;441;51.192;6.788;2023-04-06T14:30:56;20.00;46.70
909;DHT22;441;51.192;6.788;2023-04-06T14:33:23;20.10;46.60
909;DHT22;441;51.192;6.788;2023-04-06T14:35:50;20.20;46.50
909;DHT22;441;51.192;6.788;2023-04-06T14:38:17;20.10;46.60
909;DHT22;441;51.192;6.788;2023-04-06T14:40:44;20.10;46.50
909;DHT22;441;51.192;6.788;2023-04-06T14:43:11;20.10;46.70
909;DHT22;441;51.192;6.788;2023-04-06T14:45:40;20.10;47.20
909;DHT22;441;51.192;6.788;2023-04-06T14:48:07;20.00;47.60
909;DHT22;441;51.192;6.788;2023-04-06T14:50:37;20.00;47.90
909;DHT22;441;51.192;6.788;2023-04-06T14:53:04;20.10;48.20
909;DHT22;441;51.192;6.788;2023-04-06T14:55:31;20.10;48.20
909;DHT22;441;51.192;6.788;2023-04-06T14:57:59;20.10;48.20
909;DHT22;441;51.192;6.788;2023-04-06T15:00:26;20.10;47.90
909;DHT22;441;51.192;6.788;2023-04-06T15:02:54;20.10;48.00
909;DHT22;441;51.192;6.788;2023-04-06T15:05:21;20.20;48.20
909;DHT22;441;51.192;6.788;2023-04-06T15:07:48;20.20;47.90
909;DHT22;441;51.192;6.788;2023-04-06T15:10:15;20.20;46.50
909;DHT22;441;51.192;6.788;2023-04-06T15:12:42;20.20;46.90
909;DHT22;441;51.192;6.788;2023-04-06T15:15:09;20.30;46.90
909;DHT22;441;51.192;6.788;2023-04-06T15:17:36;20.30;46.80
909;DHT22;441;51.192;6.788;2023-04-06T15:20:05;20.30;46.80
909;DHT22;441;51.192;6.788;2023-04-06T15:22:32;20.40;47.20
909;DHT22;441;51.192;6.788;2023-04-06T15:24:59;20.40;47.60
909;DHT22;441;51.192;6.788;2023-04-06T15:27:26;20.40;47.90
909;DHT22;441;51.192;6.788;2023-04-06T15:29:53;20.40;48.10
909;DHT22;441;51.192;6.788;2023-04-06T15:32:21;20.50;48.30
909;DHT22;441;51.192;6.788;2023-04-06T15:34:48;20.50;48.30
909;DHT22;441;51.192;6.788;2023-04-06T15:37:16;20.50;48.40
909;DHT22;441;51.192;6.788;2023-04-06T15:39:43;20.50;48.50
909;DHT22;441;51.192;6.788;2023-04-06T15:42:10;20.50;48.60
909;DHT22;441;51.192;6.788;2023-04-06T15:44:37;20.60;48.70
909;DHT22;441;51.192;6.788;2023-04-06T15:47:03;20.60;48.70
909;DHT22;441;51.192;6.788;2023-04-06T15:49:31;20.60;48.80
909;DHT22;441;51.192;6.788;2023-04-06T15:51:58;20.60;48.90
909;DHT22;441;51.192;6.788;2023-04-06T15:54:26;20.60;48.90
909;DHT22;441;51.192;6.788;2023-04-06T15:56:53;20.60;49.00
909;DHT22;441;51.192;6.788;2023-04-06T15:59:21;20.60;49.10
909;DHT22;441;51.192;6.788;2023-04-06T16:01:48;20.60;48.90
909;DHT22;441;51.192;6.788;2023-04-06T16:04:15;20.70;50.90
909;DHT22;441;51.192;6.788;2023-04-06T16:06:42;20.70;50.80
909;DHT22;441;51.192;6.788;2023-04-06T16:09:08;20.70;49.70
909;DHT22;441;51.192;6.788;2023-04-06T16:11:37;20.70;48.40
909;DHT22;441;51.192;6.788;2023-04-06T16:14:04;20.70;50.20
909;DHT22;441;51.192;6.788;2023-04-06T16:16:30;20.80;50.30
909;DHT22;441;51.192;6.788;2023-04-06T16:18:57;20.70;49.50
909;DHT22;441;51.192;6.788;2023-04-06T16:21:25;20.80;50.30
909;DHT22;441;51.192;6.788;2023-04-06T16:23:53;20.80;50.70
909;DHT22;441;51.192;6.788;2023-04-06T16:26:20;20.80;51.10
909;DHT22;441;51.192;6.788;2023-04-06T16:28:50;20.90;50.90
909;DHT22;441;51.192;6.788;2023-04-06T16:31:18;20.90;50.10
909;DHT22;441;51.192;6.788;2023-04-06T16:33:46;20.90;49.90
909;DHT22;441;51.192;6.788;2023-04-06T16:36:13;20.90;50.20
909;DHT22;441;51.192;6.788;2023-04-06T16:38:40;21.00;51.10